sensor_id;sensor_type;location;lat;lon;timestamp;P1;durP1;ratioP1;P2;durP2;ratioP2
9334;SDS011;4706;41.844;26.082;2023-05-20T00:01:56;13.15;;;10.23;;
9334;SDS011;4706;41.844;26.082;2023-05-20T00:04:22;11.10;;;10.10;;
9334;SDS011;4706;41.844;26.082;2023-05-20T00:06:47;13.70;;;10.93;;
9334;SDS011;4706;41.844;26.082;2023-05-20T00:09:13;11.32;;;10.32;;
9334;SDS011;4706;41.844;26.082;2023-05-20T00:11:38;13.15;;;11.65;;
9334;SDS011;4706;41.844;26.082;2023-05-20T00:14:04;14.10;;;12.60;;
9334;SDS011;4706;41.844;26.082;2023-05-20T00:16:30;15.48;;;13.98;;
9334;SDS011;4706;41.844;26.082;2023-05-20T00:18:55;14.05;;;12.50;;
9334;SDS011;4706;41.844;26.082;2023-05-20T00:21:21;15.13;;;13.68;;
9334;SDS011;4706;41.844;26.082;2023-05-20T00:23:47;15.27;;;13.35;;
9334;SDS011;4706;41.844;26.082;2023-05-20T00:26:12;16.00;;;14.23;;
9334;SDS011;4706;41.844;26.082;2023-05-20T00:28:38;14.82;;;13.38;;
9334;SDS011;4706;41.844;26.082;2023-05-20T00:31:03;12.85;;;11.45;;
9334;SDS011;4706;41.844;26.082;2023-05-20T00:33:29;12.75;;;11.57;;
9334;SDS011;4706;41.844;26.082;2023-05-20T00:35:55;12.65;;;11.40;;
9334;SDS011;4706;41.844;26.082;2023-05-20T00:38:20;12.77;;;11.38;;
9334;SDS011;4706;41.844;26.082;2023-05-20T00:40:46;12.65;;;11.20;;
9334;SDS011;4706;41.844;26.082;2023-05-20T00:43:11;13.40;;;10.75;;
9334;SDS011;4706;41.844;26.082;2023-05-20T00:45:37;11.55;;;10.55;;
9334;SDS011;4706;41.844;26.082;2023-05-20T00:48:03;11.60;;;10.48;;
9334;SDS011;4706;41.844;26.082;2023-05-20T00:50:30;12.82;;;11.55;;
9334;SDS011;4706;41.844;26.082;2023-05-20T00:52:56;13.70;;;11.32;;
9334;SDS011;4706;41.844;26.082;2023-05-20T00:55:23;12.57;;;11.45;;
9334;SDS011;4706;41.844;26.082;2023-05-20T00:57:49;12.32;;;10.95;;
9334;SDS011;4706;41.844;26.082;2023-05-20T01:00:17;12.82;;;11.55;;
9334;SDS011;4706;41.844;26.082;2023-05-20T01:02:42;12.45;;;11.23;;
9334;SDS011;4706;41.844;26.082;2023-05-20T01:05:08;13.23;;;11.85;;
9334;SDS011;4706;41.844;26.082;2023-05-20T01:07:34;13.27;;;12.02;;
9334;SDS011;4706;41.844;26.082;2023-05-20T01:09:59;13.27;;;11.68;;
9334;SDS011;4706;41.844;26.082;2023-05-20T01:12:39;12.25;;;11.18;;
9334;SDS011;4706;41.844;26.082;2023-05-20T01:15:17;12.77;;;11.60;;
9334;SDS011;4706;41.844;26.082;2023-05-20T01:17:46;12.90;;;11.65;;
9334;SDS011;4706;41.844;26.082;2023-05-20T01:20:15;13.15;;;11.77;;
9334;SDS011;4706;41.844;26.082;2023-05-20T01:22:52;13.95;;;11.90;;
9334;SDS011;4706;41.844;26.082;2023-05-20T01:25:18;13.45;;;11.85;;
9334;SDS011;4706;41.844;26.082;2023-05-20T01:27:45;13.13;;;11.55;;
9334;SDS011;4706;41.844;26.082;2023-05-20T01:30:13;14.43;;;11.63;;
9334;SDS011;4706;41.844;26.082;2023-05-20T01:32:58;17.73;;;11.98;;
9334;SDS011;4706;41.844;26.082;2023-05-20T01:35:29;12.95;;;11.65;;
9334;SDS011;4706;41.844;26.082;2023-05-20T01:37:54;13.23;;;11.90;;
9334;SDS011;4706;41.844;26.082;2023-05-20T01:40:22;14.68;;;11.98;;
9334;SDS011;4706;41.844;26.082;2023-05-20T01:42:50;13.20;;;12.07;;
9334;SDS011;4706;41.844;26.082;2023-05-20T01:45:17;13.30;;;12.10;;
9334;SDS011;4706;41.844;26.082;2023-05-20T01:47:44;13.40;;;12.15;;
9334;SDS011;4706;41.844;26.082;2023-05-20T01:50:10;17.20;;;12.63;;
9334;SDS011;4706;41.844;26.082;2023-05-20T01:52:35;16.23;;;12.68;;
9334;SDS011;4706;41.844;26.082;2023-05-20T01:55:01;13.05;;;11.85;;
9334;SDS011;4706;41.844;26.082;2023-05-20T01:57:27;13.23;;;12.02;;
9334;SDS011;4706;41.844;26.082;2023-05-20T01:59:52;13.70;;;12.32;;
9334;SDS011;4706;41.844;26.082;2023-05-20T02:02:18;14.30;;;12.88;;
9334;SDS011;4706;41.844;26.082;2023-05-20T02:04:44;13.55;;;12.25;;
9334;SDS011;4706;41.844;26.082;2023-05-20T02:07:13;14.40;;;12.93;;
9334;SDS011;4706;41.844;26.082;2023-05-20T02:09:39;13.38;;;12.23;;
9334;SDS011;4706;41.844;26.082;2023-05-20T02:12:05;14.00;;;12.63;;
9334;SDS011;4706;41.844;26.082;2023-05-20T02:14:31;14.73;;;13.32;;
9334;SDS011;4706;41.844;26.082;2023-05-20T02:16:57;14.82;;;13.23;;
9334;SDS011;4706;41.844;26.082;2023-05-20T02:19:22;17.45;;;14.50;;
9334;SDS011;4706;41.844;26.082;2023-05-20T02:21:48;16.40;;;14.02;;
9334;SDS011;4706;41.844;26.082;2023-05-20T02:24:14;14.98;;;13.57;;
9334;SDS011;4706;41.844;26.082;2023-05-20T02:26:40;15.05;;;13.48;;
9334;SDS011;4706;41.844;26.082;2023-05-20T02:29:06;14.57;;;13.27;;
9334;SDS011;4706;41.844;26.082;2023-05-20T02:31:31;14.20;;;12.52;;
9334;SDS011;4706;41.844;26.082;2023-05-20T02:33:57;14.45;;;13.15;;
9334;SDS011;4706;41.844;26.082;2023-05-20T02:36:22;14.88;;;13.45;;
9334;SDS011;4706;41.844;26.082;2023-05-20T02:38:48;13.18;;;11.98;;
9334;SDS011;4706;41.844;26.082;2023-05-20T02:41:13;13.55;;;12.23;;
9334;SDS011;4706;41.844;26.082;2023-05-20T02:43:39;14.00;;;12.68;;
9334;SDS011;4706;41.844;26.082;2023-05-20T02:46:05;13.82;;;12.52;;
9334;SDS011;4706;41.844;26.082;2023-05-20T02:48:31;14.10;;;12.52;;
9334;SDS011;4706;41.844;26.082;2023-05-20T02:50:57;13.32;;;12.02;;
9334;SDS011;4706;41.844;26.082;2023-05-20T02:53:23;13.95;;;12.57;;
9334;SDS011;4706;41.844;26.082;2023-05-20T02:55:50;13.68;;;12.30;;
9334;SDS011;4706;41.844;26.082;2023-05-20T02:58:15;14.07;;;12.77;;
9334;SDS011;4706;41.844;26.082;2023-05-20T03:00:41;14.15;;;12.85;;
9334;SDS011;4706;41.844;26.082;2023-05-20T03:03:07;14.00;;;12.70;;
9334;SDS011;4706;41.844;26.082;2023-05-20T03:05:34;14.10;;;12.73;;
9334;SDS011;4706;41.844;26.082;2023-05-20T03:08:03;14.77;;;13.48;;
9334;SDS011;4706;41.844;26.082;2023-05-20T03:10:35;15.00;;;13.50;;
9334;SDS011;4706;41.844;26.082;2023-05-20T03:13:04;14.55;;;13.13;;
9334;SDS011;4706;41.844;26.082;2023-05-20T03:15:35;14.00;;;12.70;;
9334;SDS011;4706;41.844;26.082;2023-05-20T03:18:04;13.90;;;12.70;;
9334;SDS011;4706;41.844;26.082;2023-05-20T03:20:31;14.55;;;12.98;;
9334;SDS011;4706;41.844;26.082;2023-05-20T03:23:03;13.57;;;12.32;;
9334;SDS011;4706;41.844;26.082;2023-05-20T03:25:28;13.38;;;12.02;;
9334;SDS011;4706;41.844;26.082;2023-05-20T03:27:55;14.13;;;12.68;;
9334;SDS011;4706;41.844;26.082;2023-05-20T03:30:22;14.25;;;12.85;;
9334;SDS011;4706;41.844;26.082;2023-05-20T03:32:48;15.45;;;14.05;;
9334;SDS011;4706;41.844;26.082;2023-05-20T03:35:14;15.63;;;13.23;;
9334;SDS011;4706;41.844;26.082;2023-05-20T03:37:39;13.65;;;12.43;;
9334;SDS011;4706;41.844;26.082;2023-05-20T03:40:07;14.15;;;12.85;;
9334;SDS011;4706;41.844;26.082;2023-05-20T03:42:34;14.93;;;13.40;;
9334;SDS011;4706;41.844;26.082;2023-05-20T03:45:01;14.70;;;13.15;;
9334;SDS011;4706;41.844;26.082;2023-05-20T03:47:26;15.10;;;13.50;;
9334;SDS011;4706;41.844;26.082;2023-05-20T03:49:52;13.70;;;12.35;;
9334;SDS011;4706;41.844;26.082;2023-05-20T03:52:18;13.35;;;12.07;;
9334;SDS011;4706;41.844;26.082;2023-05-20T03:54:43;16.10;;;12.18;;
9334;SDS011;4706;41.844;26.082;2023-05-20T03:57:09;13.73;;;12.35;;
9334;SDS011;4706;41.844;26.082;2023-05-20T03:59:35;13.73;;;12.30;;
9334;SDS011;4706;41.844;26.082;2023-05-20T04:02:01;13.93;;;11.32;;
9334;SDS011;4706;41.844;26.082;2023-05-20T04:04:27;13.13;;;12.02;;
9334;SDS011;4706;41.844;26.082;2023-05-20T04:06:53;12.63;;;11.35;;
9334;SDS011;4706;41.844;26.082;2023-05-20T04:09:20;13.00;;;11.60;;
9334;SDS011;4706;41.844;26.082;2023-05-20T04:11:47;19.25;;;12.57;;
9334;SDS011;4706;41.844;26.082;2023-05-20T04:14:12;13.68;;;12.07;;
9334;SDS011;4706;41.844;26.082;2023-05-20T04:16:38;13.13;;;11.25;;
9334;SDS011;4706;41.844;26.082;2023-05-20T04:19:03;13.38;;;12.00;;
9334;SDS011;4706;41.844;26.082;2023-05-20T04:21:29;13.52;;;12.23;;
9334;SDS011;4706;41.844;26.082;2023-05-20T04:23:55;13.20;;;11.85;;
9334;SDS011;4706;41.844;26.082;2023-05-20T04:26:21;17.10;;;12.35;;
9334;SDS011;4706;41.844;26.082;2023-05-20T04:28:46;15.27;;;11.63;;
9334;SDS011;4706;41.844;26.082;2023-05-20T04:31:15;12.60;;;11.32;;
9334;SDS011;4706;41.844;26.082;2023-05-20T04:33:41;12.60;;;11.50;;
9334;SDS011;4706;41.844;26.082;2023-05-20T04:36:08;12.57;;;11.35;;
9334;SDS011;4706;41.844;26.082;2023-05-20T04:38:36;12.32;;;10.95;;
9334;SDS011;4706;41.844;26.082;2023-05-20T04:41:02;12.65;;;11.07;;
9334;SDS011;4706;41.844;26.082;2023-05-20T04:43:28;11.63;;;10.40;;
9334;SDS011;4706;41.844;26.082;2023-05-20T04:45:58;11.70;;;10.50;;
9334;SDS011;4706;41.844;26.082;2023-05-20T04:48:25;12.45;;;11.23;;
9334;SDS011;4706;41.844;26.082;2023-05-20T04:50:51;11.60;;;10.48;;
9334;SDS011;4706;41.844;26.082;2023-05-20T04:53:17;13.70;;;10.65;;
9334;SDS011;4706;41.844;26.082;2023-05-20T04:55:44;11.10;;;10.05;;
9334;SDS011;4706;41.844;26.082;2023-05-20T04:58:10;11.40;;;10.25;;
9334;SDS011;4706;41.844;26.082;2023-05-20T05:00:48;13.65;;;9.98;;
9334;SDS011;4706;41.844;26.082;2023-05-20T05:03:15;15.57;;;10.52;;
9334;SDS011;4706;41.844;26.082;2023-05-20T05:05:41;11.23;;;10.18;;
9334;SDS011;4706;41.844;26.082;2023-05-20T05:08:07;11.40;;;10.30;;
9334;SDS011;4706;41.844;26.082;2023-05-20T05:10:34;9.93;;;9.13;;
9334;SDS011;4706;41.844;26.082;2023-05-20T05:13:00;10.85;;;9.90;;
9334;SDS011;4706;41.844;26.082;2023-05-20T05:15:26;14.82;;;12.20;;
9334;SDS011;4706;41.844;26.082;2023-05-20T05:17:52;12.60;;;9.38;;
9334;SDS011;4706;41.844;26.082;2023-05-20T05:20:18;10.52;;;8.90;;
9334;SDS011;4706;41.844;26.082;2023-05-20T05:22:43;10.23;;;9.18;;
9334;SDS011;4706;41.844;26.082;2023-05-20T05:25:10;11.02;;;9.93;;
9334;SDS011;4706;41.844;26.082;2023-05-20T05:27:36;12.13;;;10.93;;
9334;SDS011;4706;41.844;26.082;2023-05-20T05:30:02;12.18;;;10.98;;
9334;SDS011;4706;41.844;26.082;2023-05-20T05:32:29;12.85;;;11.70;;
9334;SDS011;4706;41.844;26.082;2023-05-20T05:34:54;11.98;;;10.82;;
9334;SDS011;4706;41.844;26.082;2023-05-20T05:37:20;12.20;;;11.02;;
9334;SDS011;4706;41.844;26.082;2023-05-20T05:39:46;12.15;;;10.93;;
9334;SDS011;4706;41.844;26.082;2023-05-20T05:42:11;10.30;;;9.40;;
9334;SDS011;4706;41.844;26.082;2023-05-20T05:44:37;10.85;;;9.77;;
9334;SDS011;4706;41.844;26.082;2023-05-20T05:47:02;12.02;;;10.48;;
9334;SDS011;4706;41.844;26.082;2023-05-20T05:49:30;11.07;;;9.15;;
9334;SDS011;4706;41.844;26.082;2023-05-20T05:51:55;12.85;;;9.80;;
9334;SDS011;4706;41.844;26.082;2023-05-20T05:54:21;10.60;;;9.60;;
9334;SDS011;4706;41.844;26.082;2023-05-20T05:56:46;10.73;;;9.73;;
9334;SDS011;4706;41.844;26.082;2023-05-20T05:59:12;13.18;;;10.45;;
9334;SDS011;4706;41.844;26.082;2023-05-20T06:01:37;14.05;;;10.38;;
9334;SDS011;4706;41.844;26.082;2023-05-20T06:04:03;12.98;;;10.55;;
9334;SDS011;4706;41.844;26.082;2023-05-20T06:06:29;13.88;;;9.70;;
9334;SDS011;4706;41.844;26.082;2023-05-20T06:08:55;11.75;;;10.05;;
9334;SDS011;4706;41.844;26.082;2023-05-20T06:11:21;10.23;;;9.38;;
9334;SDS011;4706;41.844;26.082;2023-05-20T06:13:48;9.55;;;8.65;;
9334;SDS011;4706;41.844;26.082;2023-05-20T06:16:13;15.18;;;9.88;;
9334;SDS011;4706;41.844;26.082;2023-05-20T06:18:39;14.32;;;9.25;;
9334;SDS011;4706;41.844;26.082;2023-05-20T06:21:05;12.18;;;9.88;;
9334;SDS011;4706;41.844;26.082;2023-05-20T06:23:30;9.68;;;8.77;;
9334;SDS011;4706;41.844;26.082;2023-05-20T06:25:59;10.40;;;8.82;;
9334;SDS011;4706;41.844;26.082;2023-05-20T06:28:25;11.15;;;7.82;;
9334;SDS011;4706;41.844;26.082;2023-05-20T06:30:52;9.63;;;8.73;;
9334;SDS011;4706;41.844;26.082;2023-05-20T06:33:19;12.57;;;8.32;;
9334;SDS011;4706;41.844;26.082;2023-05-20T06:35:50;9.10;;;8.20;;
9334;SDS011;4706;41.844;26.082;2023-05-20T06:38:16;9.35;;;7.38;;
9334;SDS011;4706;41.844;26.082;2023-05-20T06:40:42;8.52;;;7.60;;
9334;SDS011;4706;41.844;26.082;2023-05-20T06:43:07;11.55;;;8.57;;
9334;SDS011;4706;41.844;26.082;2023-05-20T06:45:33;10.63;;;7.82;;
9334;SDS011;4706;41.844;26.082;2023-05-20T06:47:58;16.85;;;8.45;;
9334;SDS011;4706;41.844;26.082;2023-05-20T06:50:24;11.60;;;8.82;;
9334;SDS011;4706;41.844;26.082;2023-05-20T06:52:52;13.65;;;7.50;;
9334;SDS011;4706;41.844;26.082;2023-05-20T06:55:18;8.07;;;6.90;;
9334;SDS011;4706;41.844;26.082;2023-05-20T06:57:43;10.13;;;7.07;;
9334;SDS011;4706;41.844;26.082;2023-05-20T07:00:09;9.98;;;8.43;;
9334;SDS011;4706;41.844;26.082;2023-05-20T07:02:35;12.52;;;8.07;;
9334;SDS011;4706;41.844;26.082;2023-05-20T07:05:00;8.95;;;7.43;;
9334;SDS011;4706;41.844;26.082;2023-05-20T07:07:26;7.65;;;6.85;;
9334;SDS011;4706;41.844;26.082;2023-05-20T07:09:52;16.15;;;8.18;;
9334;SDS011;4706;41.844;26.082;2023-05-20T07:12:18;7.70;;;6.90;;
9334;SDS011;4706;41.844;26.082;2023-05-20T07:14:44;6.97;;;6.32;;
9334;SDS011;4706;41.844;26.082;2023-05-20T07:17:10;12.70;;;7.53;;
9334;SDS011;4706;41.844;26.082;2023-05-20T07:19:36;10.88;;;6.88;;
9334;SDS011;4706;41.844;26.082;2023-05-20T07:22:01;7.25;;;6.50;;
9334;SDS011;4706;41.844;26.082;2023-05-20T07:24:27;7.35;;;6.65;;
9334;SDS011;4706;41.844;26.082;2023-05-20T07:26:53;7.53;;;6.93;;
9334;SDS011;4706;41.844;26.082;2023-05-20T07:29:18;7.88;;;6.22;;
9334;SDS011;4706;41.844;26.082;2023-05-20T07:31:44;9.70;;;6.85;;
9334;SDS011;4706;41.844;26.082;2023-05-20T07:34:09;7.25;;;6.68;;
9334;SDS011;4706;41.844;26.082;2023-05-20T07:36:35;7.65;;;6.55;;
9334;SDS011;4706;41.844;26.082;2023-05-20T07:39:01;7.68;;;6.75;;
9334;SDS011;4706;41.844;26.082;2023-05-20T07:41:27;9.68;;;7.18;;
9334;SDS011;4706;41.844;26.082;2023-05-20T07:43:53;10.48;;;7.40;;
9334;SDS011;4706;41.844;26.082;2023-05-20T07:46:18;10.68;;;7.13;;
9334;SDS011;4706;41.844;26.082;2023-05-20T07:48:44;8.60;;;6.82;;
9334;SDS011;4706;41.844;26.082;2023-05-20T07:51:10;8.93;;;7.47;;
9334;SDS011;4706;41.844;26.082;2023-05-20T07:53:35;8.52;;;7.68;;
9334;SDS011;4706;41.844;26.082;2023-05-20T07:56:01;8.65;;;7.07;;
9334;SDS011;4706;41.844;26.082;2023-05-20T07:58:28;7.28;;;6.57;;
9334;SDS011;4706;41.844;26.082;2023-05-20T08:00:53;8.00;;;7.20;;
9334;SDS011;4706;41.844;26.082;2023-05-20T08:03:19;7.82;;;7.03;;
9334;SDS011;4706;41.844;26.082;2023-05-20T08:05:46;7.45;;;6.85;;
9334;SDS011;4706;41.844;26.082;2023-05-20T08:08:12;15.25;;;7.10;;
9334;SDS011;4706;41.844;26.082;2023-05-20T08:10:37;8.00;;;6.32;;
9334;SDS011;4706;41.844;26.082;2023-05-20T08:13:03;6.50;;;5.90;;
9334;SDS011;4706;41.844;26.082;2023-05-20T08:15:29;9.70;;;7.03;;
9334;SDS011;4706;41.844;26.082;2023-05-20T08:17:54;10.93;;;6.97;;
9334;SDS011;4706;41.844;26.082;2023-05-20T08:20:20;7.88;;;7.10;;
9334;SDS011;4706;41.844;26.082;2023-05-20T08:22:46;15.68;;;6.95;;
9334;SDS011;4706;41.844;26.082;2023-05-20T08:25:11;6.90;;;6.18;;
9334;SDS011;4706;41.844;26.082;2023-05-20T08:27:37;14.88;;;7.75;;
9334;SDS011;4706;41.844;26.082;2023-05-20T08:30:03;7.50;;;6.80;;
9334;SDS011;4706;41.844;26.082;2023-05-20T08:32:29;6.78;;;6.13;;
9334;SDS011;4706;41.844;26.082;2023-05-20T08:34:55;8.15;;;6.47;;
9334;SDS011;4706;41.844;26.082;2023-05-20T08:37:21;7.15;;;6.45;;
9334;SDS011;4706;41.844;26.082;2023-05-20T08:39:47;9.43;;;6.50;;
9334;SDS011;4706;41.844;26.082;2023-05-20T08:42:14;10.52;;;6.65;;
9334;SDS011;4706;41.844;26.082;2023-05-20T08:44:40;6.13;;;5.53;;
9334;SDS011;4706;41.844;26.082;2023-05-20T08:47:07;8.73;;;6.18;;
9334;SDS011;4706;41.844;26.082;2023-05-20T08:49:33;10.93;;;6.70;;
9334;SDS011;4706;41.844;26.082;2023-05-20T08:51:59;7.90;;;6.78;;
9334;SDS011;4706;41.844;26.082;2023-05-20T08:54:27;11.20;;;7.10;;
9334;SDS011;4706;41.844;26.082;2023-05-20T08:57:08;10.30;;;7.30;;
9334;SDS011;4706;41.844;26.082;2023-05-20T08:59:41;6.97;;;6.20;;
9334;SDS011;4706;41.844;26.082;2023-05-20T09:02:08;8.38;;;6.43;;
9334;SDS011;4706;41.844;26.082;2023-05-20T09:04:35;7.10;;;6.35;;
9334;SDS011;4706;41.844;26.082;2023-05-20T09:07:01;8.07;;;6.95;;
9334;SDS011;4706;41.844;26.082;2023-05-20T09:09:26;8.50;;;7.65;;
9334;SDS011;4706;41.844;26.082;2023-05-20T09:11:52;11.50;;;8.18;;
9334;SDS011;4706;41.844;26.082;2023-05-20T09:14:17;10.65;;;7.43;;
9334;SDS011;4706;41.844;26.082;2023-05-20T09:16:43;8.80;;;7.28;;
9334;SDS011;4706;41.844;26.082;2023-05-20T09:19:09;13.57;;;7.25;;
9334;SDS011;4706;41.844;26.082;2023-05-20T09:21:34;9.00;;;6.60;;
9334;SDS011;4706;41.844;26.082;2023-05-20T09:24:01;11.68;;;7.18;;
9334;SDS011;4706;41.844;26.082;2023-05-20T09:26:27;7.97;;;7.18;;
9334;SDS011;4706;41.844;26.082;2023-05-20T09:28:57;17.08;;;8.02;;
9334;SDS011;4706;41.844;26.082;2023-05-20T09:31:26;9.98;;;8.15;;
9334;SDS011;4706;41.844;26.082;2023-05-20T09:33:53;8.55;;;7.57;;
9334;SDS011;4706;41.844;26.082;2023-05-20T09:36:19;9.45;;;8.05;;
9334;SDS011;4706;41.844;26.082;2023-05-20T09:38:47;7.65;;;6.93;;
9334;SDS011;4706;41.844;26.082;2023-05-20T09:41:21;9.93;;;7.03;;
9334;SDS011;4706;41.844;26.082;2023-05-20T09:43:50;7.47;;;6.78;;
9334;SDS011;4706;41.844;26.082;2023-05-20T09:46:17;7.60;;;6.80;;
9334;SDS011;4706;41.844;26.082;2023-05-20T09:48:44;8.10;;;6.85;;
9334;SDS011;4706;41.844;26.082;2023-05-20T09:51:10;14.23;;;7.80;;
9334;SDS011;4706;41.844;26.082;2023-05-20T09:53:37;8.30;;;6.43;;
9334;SDS011;4706;41.844;26.082;2023-05-20T09:56:03;9.18;;;7.88;;
9334;SDS011;4706;41.844;26.082;2023-05-20T09:58:29;9.68;;;6.72;;
9334;SDS011;4706;41.844;26.082;2023-05-20T10:00:55;8.07;;;6.63;;
9334;SDS011;4706;41.844;26.082;2023-05-20T10:03:21;9.23;;;6.75;;
9334;SDS011;4706;41.844;26.082;2023-05-20T10:11:48;8.40;;;7.10;;
9334;SDS011;4706;41.844;26.082;2023-05-20T10:17:24;11.27;;;8.00;;
9334;SDS011;4706;41.844;26.082;2023-05-20T10:19:59;8.68;;;7.78;;
9334;SDS011;4706;41.844;26.082;2023-05-20T10:22:26;7.57;;;6.82;;
9334;SDS011;4706;41.844;26.082;2023-05-20T10:24:59;7.45;;;6.40;;
9334;SDS011;4706;41.844;26.082;2023-05-20T10:27:40;6.90;;;6.20;;
9334;SDS011;4706;41.844;26.082;2023-05-20T10:30:17;10.43;;;6.78;;
9334;SDS011;4706;41.844;26.082;2023-05-20T10:32:56;7.20;;;6.38;;
9334;SDS011;4706;41.844;26.082;2023-05-20T10:35:27;8.90;;;6.30;;
9334;SDS011;4706;41.844;26.082;2023-05-20T10:37:53;7.47;;;6.40;;
9334;SDS011;4706;41.844;26.082;2023-05-20T10:40:30;9.05;;;6.30;;
9334;SDS011;4706;41.844;26.082;2023-05-20T10:42:56;6.68;;;6.07;;
9334;SDS011;4706;41.844;26.082;2023-05-20T10:45:32;9.27;;;6.10;;
9334;SDS011;4706;41.844;26.082;2023-05-20T10:48:01;14.73;;;6.88;;
9334;SDS011;4706;41.844;26.082;2023-05-20T10:50:36;8.13;;;6.60;;
9334;SDS011;4706;41.844;26.082;2023-05-20T10:53:04;9.80;;;6.38;;
9334;SDS011;4706;41.844;26.082;2023-05-20T10:55:37;7.18;;;6.38;;
9334;SDS011;4706;41.844;26.082;2023-05-20T10:58:04;8.30;;;6.80;;
9334;SDS011;4706;41.844;26.082;2023-05-20T11:00:33;7.75;;;6.95;;
9334;SDS011;4706;41.844;26.082;2023-05-20T11:03:00;8.77;;;7.63;;
9334;SDS011;4706;41.844;26.082;2023-05-20T11:05:26;8.63;;;6.65;;
9334;SDS011;4706;41.844;26.082;2023-05-20T11:07:59;8.57;;;6.72;;
9334;SDS011;4706;41.844;26.082;2023-05-20T11:10:28;11.13;;;6.57;;
9334;SDS011;4706;41.844;26.082;2023-05-20T11:12:56;9.95;;;7.68;;
9334;SDS011;4706;41.844;26.082;2023-05-20T11:15:22;13.02;;;8.75;;
9334;SDS011;4706;41.844;26.082;2023-05-20T11:17:55;11.75;;;10.55;;
9334;SDS011;4706;41.844;26.082;2023-05-20T11:20:26;12.57;;;11.27;;
9334;SDS011;4706;41.844;26.082;2023-05-20T11:22:52;8.07;;;7.28;;
9334;SDS011;4706;41.844;26.082;2023-05-20T11:25:19;6.60;;;6.00;;
9334;SDS011;4706;41.844;26.082;2023-05-20T11:27:48;6.43;;;5.82;;
9334;SDS011;4706;41.844;26.082;2023-05-20T11:30:14;6.93;;;6.30;;
9334;SDS011;4706;41.844;26.082;2023-05-20T11:32:55;7.07;;;6.25;;
9334;SDS011;4706;41.844;26.082;2023-05-20T11:35:22;6.95;;;6.25;;
9334;SDS011;4706;41.844;26.082;2023-05-20T11:37:53;6.82;;;6.10;;
9334;SDS011;4706;41.844;26.082;2023-05-20T11:40:25;6.45;;;5.85;;
9334;SDS011;4706;41.844;26.082;2023-05-20T11:43:00;7.18;;;6.18;;
9334;SDS011;4706;41.844;26.082;2023-05-20T11:45:37;7.22;;;5.95;;
9334;SDS011;4706;41.844;26.082;2023-05-20T11:48:04;8.50;;;6.07;;
9334;SDS011;4706;41.844;26.082;2023-05-20T11:50:37;6.38;;;5.75;;
9334;SDS011;4706;41.844;26.082;2023-05-20T11:53:10;6.20;;;5.60;;
9334;SDS011;4706;41.844;26.082;2023-05-20T11:58:11;6.03;;;4.85;;
9334;SDS011;4706;41.844;26.082;2023-05-20T12:00:40;7.85;;;5.25;;
9334;SDS011;4706;41.844;26.082;2023-05-20T12:03:05;7.65;;;5.03;;
9334;SDS011;4706;41.844;26.082;2023-05-20T12:05:31;7.80;;;5.22;;
9334;SDS011;4706;41.844;26.082;2023-05-20T12:07:56;7.13;;;5.03;;
9334;SDS011;4706;41.844;26.082;2023-05-20T12:10:22;6.95;;;5.57;;
9334;SDS011;4706;41.844;26.082;2023-05-20T12:12:48;5.78;;;5.20;;
9334;SDS011;4706;41.844;26.082;2023-05-20T12:15:13;9.07;;;6.03;;
9334;SDS011;4706;41.844;26.082;2023-05-20T12:17:44;7.20;;;5.30;;
9334;SDS011;4706;41.844;26.082;2023-05-20T12:20:14;6.05;;;5.53;;
9334;SDS011;4706;41.844;26.082;2023-05-20T12:22:44;11.80;;;10.88;;
9334;SDS011;4706;41.844;26.082;2023-05-20T12:25:13;6.85;;;5.63;;
9334;SDS011;4706;41.844;26.082;2023-05-20T12:27:40;5.90;;;5.32;;
9334;SDS011;4706;41.844;26.082;2023-05-20T12:30:07;9.23;;;6.07;;
9334;SDS011;4706;41.844;26.082;2023-05-20T12:32:36;8.13;;;5.57;;
9334;SDS011;4706;41.844;26.082;2023-05-20T12:35:02;6.55;;;5.43;;
9334;SDS011;4706;41.844;26.082;2023-05-20T12:37:28;8.68;;;6.35;;
9334;SDS011;4706;41.844;26.082;2023-05-20T12:39:54;7.00;;;5.55;;
9334;SDS011;4706;41.844;26.082;2023-05-20T12:42:20;7.50;;;5.15;;
9334;SDS011;4706;41.844;26.082;2023-05-20T12:44:45;9.80;;;5.72;;
9334;SDS011;4706;41.844;26.082;2023-05-20T12:47:11;8.50;;;5.32;;
9334;SDS011;4706;41.844;26.082;2023-05-20T12:49:36;12.82;;;6.50;;
9334;SDS011;4706;41.844;26.082;2023-05-20T12:52:02;7.97;;;5.50;;
9334;SDS011;4706;41.844;26.082;2023-05-20T12:54:28;10.38;;;5.93;;
9334;SDS011;4706;41.844;26.082;2023-05-20T12:56:53;7.07;;;5.38;;
9334;SDS011;4706;41.844;26.082;2023-05-20T12:59:19;9.40;;;5.85;;
9334;SDS011;4706;41.844;26.082;2023-05-20T13:01:45;5.70;;;5.20;;
9334;SDS011;4706;41.844;26.082;2023-05-20T13:04:11;10.02;;;6.22;;
9334;SDS011;4706;41.844;26.082;2023-05-20T13:06:36;6.75;;;5.78;;
9334;SDS011;4706;41.844;26.082;2023-05-20T13:09:02;6.32;;;5.03;;
9334;SDS011;4706;41.844;26.082;2023-05-20T13:11:27;8.73;;;5.50;;
9334;SDS011;4706;41.844;26.082;2023-05-20T13:13:55;7.25;;;4.85;;
9334;SDS011;4706;41.844;26.082;2023-05-20T13:16:21;5.53;;;5.00;;
9334;SDS011;4706;41.844;26.082;2023-05-20T13:18:50;6.45;;;4.85;;
9334;SDS011;4706;41.844;26.082;2023-05-20T13:21:16;7.47;;;5.07;;
9334;SDS011;4706;41.844;26.082;2023-05-20T13:23:41;6.35;;;4.63;;
9334;SDS011;4706;41.844;26.082;2023-05-20T13:26:07;6.78;;;4.93;;
9334;SDS011;4706;41.844;26.082;2023-05-20T13:28:33;9.38;;;4.80;;
9334;SDS011;4706;41.844;26.082;2023-05-20T13:31:03;5.25;;;4.75;;
9334;SDS011;4706;41.844;26.082;2023-05-20T13:33:30;7.28;;;5.00;;
9334;SDS011;4706;41.844;26.082;2023-05-20T13:35:56;6.32;;;5.28;;
9334;SDS011;4706;41.844;26.082;2023-05-20T13:38:21;13.10;;;5.75;;
9334;SDS011;4706;41.844;26.082;2023-05-20T13:40:47;10.30;;;5.50;;
9334;SDS011;4706;41.844;26.082;2023-05-20T13:43:13;7.35;;;5.95;;
9334;SDS011;4706;41.844;26.082;2023-05-20T13:45:39;6.45;;;5.38;;
9334;SDS011;4706;41.844;26.082;2023-05-20T13:48:06;6.10;;;5.45;;
9334;SDS011;4706;41.844;26.082;2023-05-20T13:50:31;7.10;;;5.38;;
9334;SDS011;4706;41.844;26.082;2023-05-20T13:52:57;6.82;;;5.03;;
9334;SDS011;4706;41.844;26.082;2023-05-20T13:55:22;9.07;;;5.53;;
9334;SDS011;4706;41.844;26.082;2023-05-20T13:57:48;7.90;;;5.47;;
9334;SDS011;4706;41.844;26.082;2023-05-20T14:00:14;5.78;;;5.18;;
9334;SDS011;4706;41.844;26.082;2023-05-20T14:02:39;9.15;;;5.88;;
9334;SDS011;4706;41.844;26.082;2023-05-20T14:05:05;6.85;;;5.70;;
9334;SDS011;4706;41.844;26.082;2023-05-20T14:07:31;9.68;;;6.57;;
9334;SDS011;4706;41.844;26.082;2023-05-20T14:09:57;8.68;;;5.40;;
9334;SDS011;4706;41.844;26.082;2023-05-20T14:12:23;6.28;;;5.68;;
9334;SDS011;4706;41.844;26.082;2023-05-20T14:14:49;14.27;;;5.88;;
9334;SDS011;4706;41.844;26.082;2023-05-20T14:17:14;6.47;;;4.70;;
9334;SDS011;4706;41.844;26.082;2023-05-20T14:19:40;7.60;;;5.28;;
9334;SDS011;4706;41.844;26.082;2023-05-20T14:22:05;9.23;;;5.28;;
9334;SDS011;4706;41.844;26.082;2023-05-20T14:24:31;13.77;;;5.63;;
9334;SDS011;4706;41.844;26.082;2023-05-20T14:26:56;6.65;;;5.90;;
9334;SDS011;4706;41.844;26.082;2023-05-20T14:29:22;8.35;;;6.38;;
9334;SDS011;4706;41.844;26.082;2023-05-20T14:31:47;6.82;;;5.68;;
9334;SDS011;4706;41.844;26.082;2023-05-20T14:34:13;8.50;;;5.50;;
9334;SDS011;4706;41.844;26.082;2023-05-20T14:36:38;5.68;;;5.00;;
9334;SDS011;4706;41.844;26.082;2023-05-20T14:39:04;7.50;;;5.45;;
9334;SDS011;4706;41.844;26.082;2023-05-20T14:41:29;9.70;;;6.07;;
9334;SDS011;4706;41.844;26.082;2023-05-20T14:43:55;9.65;;;5.50;;
9334;SDS011;4706;41.844;26.082;2023-05-20T14:46:21;7.57;;;5.38;;
9334;SDS011;4706;41.844;26.082;2023-05-20T14:48:46;6.63;;;5.20;;
9334;SDS011;4706;41.844;26.082;2023-05-20T14:51:12;6.63;;;5.43;;
9334;SDS011;4706;41.844;26.082;2023-05-20T14:53:37;11.30;;;6.70;;
9334;SDS011;4706;41.844;26.082;2023-05-20T14:56:03;6.68;;;5.75;;
9334;SDS011;4706;41.844;26.082;2023-05-20T14:58:29;8.55;;;5.18;;